Time;durP1;ratioP1;P1;durP2;ratioP2;P2;SDS_P1;SDS_P2;PMS_P1;PMS_P2;Temp;Humidity;BMP_temperature;BMP_pressure;BME280_temperature;BME280_humidity;BME280_pressure;Samples;Min_cycle;Max_cycle;Signal;HPM_P1;HPM_P2
2020/12/02 00:02:53;;;;;;;41.60;25.30;;;6.10;99.90;;;;;;5035441;28;20447;-63
2020/12/02 00:05:20;;;;;;;46.78;26.13;;;6.20;99.90;;;;;;5032154;28;20545;-62
2020/12/02 00:07:59;;;;;;;43.03;25.00;;;6.20;99.90;;;;;;5032259;28;20489;-63
2020/12/02 00:10:26;;;;;;;43.15;24.52;;;6.20;99.90;;;;;;5033217;28;20036;-63
2020/12/02 00:12:52;;;;;;;47.25;27.13;;;6.20;99.90;;;;;;5035609;28;20072;-63
2020/12/02 00:15:18;;;;;;;42.63;26.30;;;6.20;99.90;;;;;;5032142;28;20029;-63
2020/12/02 00:17:44;;;;;;;52.25;25.48;;;6.10;99.90;;;;;;5032558;28;20045;-62
2020/12/02 00:20:10;;;;;;;47.78;27.00;;;6.10;99.90;;;;;;5033956;28;20040;-62
2020/12/02 00:22:36;;;;;;;45.50;25.02;;;6.10;99.90;;;;;;5034312;28;20036;-63
2020/12/02 00:25:05;;;;;;;47.40;28.02;;;6.10;99.90;;;;;;5031838;28;20151;-64
2020/12/02 00:27:31;;;;;;;46.78;26.60;;;6.10;99.90;;;;;;5031295;28;20021;-63
2020/12/02 00:29:58;;;;;;;54.58;29.02;;;6.10;99.90;;;;;;5033302;28;20029;-63
2020/12/02 00:32:28;;;;;;;55.83;30.13;;;6.00;99.90;;;;;;5033482;28;20033;-62
2020/12/02 00:34:54;;;;;;;;;;;6.00;99.90;;;;;;5014459;28;20069;-63
2020/12/02 00:37:20;;;;;;;46.50;26.70;;;6.00;99.90;;;;;;5031867;28;20032;-62
2020/12/02 00:39:46;;;;;;;46.08;27.63;;;6.00;99.90;;;;;;5035557;28;20024;-63
2020/12/02 00:42:12;;;;;;;50.58;28.52;;;6.00;99.90;;;;;;5032429;28;20078;-62
2020/12/02 00:44:38;;;;;;;46.85;28.05;;;6.00;99.90;;;;;;5032384;28;20530;-63
2020/12/02 00:47:11;;;;;;;52.13;30.73;;;6.00;99.90;;;;;;5028961;28;20515;-62
2020/12/02 00:49:38;;;;;;;52.65;29.85;;;6.00;99.90;;;;;;5013827;28;20036;-62
2020/12/02 00:52:09;;;;;;;49.28;28.98;;;6.00;99.90;;;;;;5028913;28;20029;-62
2020/12/02 00:54:35;;;;;;;45.30;27.95;;;6.00;99.90;;;;;;5034509;28;20025;-62
2020/12/02 00:57:01;;;;;;;48.08;28.90;;;6.00;99.90;;;;;;5031180;28;20048;-62
2020/12/02 00:59:31;;;;;;;43.33;27.13;;;6.00;99.90;;;;;;5029551;28;20050;-62
2020/12/02 01:02:14;;;;;;;50.00;31.92;;;6.10;99.90;;;;;;5036392;28;20033;-63
2020/12/02 01:04:44;;;;;;;50.13;29.95;;;6.10;99.90;;;;;;5035305;28;20650;-62
2020/12/02 01:07:11;;;;;;;50.15;30.52;;;6.10;99.90;;;;;;5036544;28;20025;-62
2020/12/02 01:09:38;;;;;;;52.63;28.67;;;6.00;99.90;;;;;;5036782;28;20403;-62
2020/12/02 01:12:04;;;;;;;46.97;28.70;;;6.00;99.90;;;;;;5034607;28;20448;-63
2020/12/02 01:14:30;;;;;;;54.50;29.83;;;6.00;99.90;;;;;;5034150;28;20029;-63
2020/12/02 01:16:59;;;;;;;49.47;30.38;;;6.00;99.90;;;;;;5030563;28;20079;-63
2020/12/02 01:19:32;;;;;;;50.75;31.08;;;5.90;99.90;;;;;;5034750;28;20041;-62
2020/12/02 01:22:05;;;;;;;53.28;30.92;;;5.90;99.90;;;;;;5035905;28;20037;-63
2020/12/02 01:24:36;;;;;;;51.63;30.80;;;5.90;99.90;;;;;;5037996;28;20056;-63
2020/12/02 01:27:14;;;;;;;53.70;31.35;;;5.90;99.90;;;;;;5034390;28;20501;-62
2020/12/02 01:29:41;;;;;;;53.67;30.60;;;5.90;99.90;;;;;;5037624;28;20117;-62
2020/12/02 01:32:07;;;;;;;54.25;31.27;;;6.00;99.90;;;;;;5037379;28;20044;-63
2020/12/02 01:34:33;;;;;;;52.22;32.00;;;5.90;99.90;;;;;;5034020;28;20044;-63
2020/12/02 01:37:05;;;;;;;56.75;31.08;;;5.90;99.90;;;;;;5035466;28;20504;-63
2020/12/02 01:39:41;;;;;;;56.42;32.13;;;5.90;99.90;;;;;;5034424;28;20939;-62
2020/12/02 01:42:12;;;;;;;56.00;30.92;;;5.80;99.90;;;;;;5032374;28;20025;-63
2020/12/02 01:44:40;;;;;;;57.25;32.35;;;5.90;99.90;;;;;;5034876;28;20581;-62
2020/12/02 01:47:17;;;;;;;52.95;30.33;;;5.90;99.90;;;;;;5038084;28;20063;-62
2020/12/02 01:50:05;;;;;;;56.42;31.42;;;5.90;99.90;;;;;;5033662;28;20056;-62
2020/12/02 01:53:05;;;;;;;52.08;30.45;;;5.90;99.90;;;;;;5007829;28;20035;-63
2020/12/02 01:55:45;;;;;;;55.92;31.05;;;5.90;99.90;;;;;;5036618;28;20115;-62
2020/12/02 01:58:31;;;;;;;58.47;32.38;;;5.90;99.90;;;;;;5034533;28;20496;-63
2020/12/02 02:01:07;;;;;;;52.67;31.33;;;5.90;99.90;;;;;;5032246;28;20068;-62
2020/12/02 02:03:36;;;;;;;62.92;32.95;;;5.90;99.90;;;;;;5035609;28;20115;-63
2020/12/02 02:06:17;;;;;;;55.58;32.22;;;5.90;99.90;;;;;;5034838;28;20116;-63
2020/12/02 02:08:43;;;;;;;56.53;31.70;;;5.90;99.90;;;;;;5034145;28;20025;-63
2020/12/02 02:11:16;;;;;;;53.55;30.33;;;5.90;99.90;;;;;;5035809;28;20032;-63
2020/12/02 02:13:54;;;;;;;61.22;32.33;;;5.90;99.90;;;;;;5032686;28;20036;-63
2020/12/02 02:16:34;;;;;;;56.88;32.13;;;5.80;99.90;;;;;;5035461;28;20491;-63
2020/12/02 02:19:00;;;;;;;;;;;5.90;99.90;;;;;;5036451;28;20132;-63
2020/12/02 02:21:32;;;;;;;58.95;30.27;;;5.90;99.90;;;;;;5033006;28;20430;-63
2020/12/02 02:23:58;;;;;;;59.08;32.10;;;5.90;99.90;;;;;;5033184;28;20033;-63
2020/12/02 02:26:32;;;;;;;56.17;31.08;;;5.90;99.90;;;;;;5018935;28;20029;-63
2020/12/02 02:29:18;;;;;;;52.20;29.75;;;5.90;99.90;;;;;;5036307;28;20111;-63
2020/12/02 02:32:00;;;;;;;55.60;29.92;;;6.00;99.90;;;;;;5032090;28;20118;-63
2020/12/02 02:34:28;;;;;;;55.03;30.20;;;5.90;99.90;;;;;;5032103;28;20033;-63
2020/12/02 02:36:55;;;;;;;54.17;30.35;;;6.00;99.90;;;;;;5033273;28;20060;-63
2020/12/02 02:39:21;;;;;;;58.28;32.05;;;6.00;99.90;;;;;;5035921;28;20041;-62
2020/12/02 02:41:48;;;;;;;59.13;32.65;;;5.90;99.90;;;;;;5032492;28;20032;-62
2020/12/02 02:44:14;;;;;;;58.17;31.63;;;6.00;99.90;;;;;;5033077;28;20087;-63
2020/12/02 02:46:40;;;;;;;54.00;31.27;;;5.90;99.90;;;;;;5035986;28;20350;-63
2020/12/02 02:49:08;;;;;;;56.25;30.40;;;6.00;99.90;;;;;;5032574;28;20063;-62
2020/12/02 02:51:34;;;;;;;59.88;31.95;;;6.00;99.90;;;;;;5033358;28;20029;-63
2020/12/02 02:54:00;;;;;;;59.58;30.38;;;6.00;99.90;;;;;;5035562;28;20032;-63
2020/12/02 02:56:26;;;;;;;57.72;31.98;;;6.00;99.90;;;;;;5034183;28;20032;-62
2020/12/02 02:58:52;;;;;;;59.47;31.48;;;6.00;99.90;;;;;;5034690;28;20243;-62
2020/12/02 03:01:18;;;;;;;60.75;34.08;;;6.00;99.90;;;;;;5029847;28;20033;-62
2020/12/02 03:03:44;;;;;;;63.95;33.33;;;5.90;99.90;;;;;;5031924;28;20029;-62
2020/12/02 03:06:10;;;;;;;58.78;32.05;;;6.00;99.90;;;;;;5037083;28;20039;-62
2020/12/02 03:08:36;;;;;;;63.42;35.10;;;5.90;99.90;;;;;;5031195;28;20492;-62
2020/12/02 03:11:05;;;;;;;61.45;33.47;;;5.90;99.90;;;;;;5033711;28;20029;-62
2020/12/02 03:13:50;;;;;;;57.15;32.35;;;5.90;99.90;;;;;;5033480;28;20144;-62
2020/12/02 03:16:28;;;;;;;63.22;33.38;;;6.00;99.90;;;;;;5034016;28;20028;-62
2020/12/02 03:19:00;;;;;;;69.75;35.03;;;5.90;99.90;;;;;;5032469;28;20040;-62
2020/12/02 03:21:27;;;;;;;68.22;35.83;;;5.90;99.90;;;;;;5033800;28;20060;-62
2020/12/02 03:23:53;;;;;;;67.18;34.53;;;5.80;99.90;;;;;;5032506;28;20068;-63
2020/12/02 03:26:19;;;;;;;60.95;34.13;;;5.80;99.90;;;;;;5035020;28;20164;-63
2020/12/02 03:28:46;;;;;;;68.75;34.40;;;5.90;99.90;;;;;;5030840;28;20033;-63
2020/12/02 03:31:15;;;;;;;68.25;35.35;;;5.90;99.90;;;;;;5032294;28;20144;-62
2020/12/02 03:33:41;;;;;;;64.00;35.10;;;5.90;99.90;;;;;;5031305;28;20055;-62
2020/12/02 03:36:07;;;;;;;61.83;33.67;;;5.90;99.90;;;;;;5031560;28;20517;-63
2020/12/02 03:38:33;;;;;;;64.90;34.83;;;5.80;99.90;;;;;;5035695;28;20048;-62
2020/12/02 03:40:59;;;;;;;66.97;34.08;;;5.90;99.90;;;;;;5031240;28;20075;-62
2020/12/02 03:43:25;;;;;;;59.42;34.15;;;5.80;99.90;;;;;;5031442;28;20139;-62
2020/12/02 03:45:51;;;;;;;65.10;34.83;;;5.80;99.90;;;;;;5034031;28;20053;-62
2020/12/02 03:48:18;;;;;;;65.45;36.50;;;5.80;99.90;;;;;;5031509;28;20063;-62
2020/12/02 03:50:44;;;;;;;66.20;35.50;;;5.80;99.90;;;;;;5034850;28;20079;-61
2020/12/02 03:53:11;;;;;;;59.28;31.90;;;5.80;99.90;;;;;;5031294;28;20033;-62
2020/12/02 03:55:38;;;;;;;64.88;34.17;;;5.90;99.90;;;;;;5036144;28;20420;-62
2020/12/02 03:58:04;;;;;;;65.70;35.28;;;5.90;99.90;;;;;;5033185;28;20050;-63
2020/12/02 04:00:31;;;;;;;60.67;35.03;;;5.90;99.90;;;;;;5031273;28;20036;-62
2020/12/02 04:02:56;;;;;;;63.47;33.60;;;5.90;99.90;;;;;;5033277;28;20222;-62
2020/12/02 04:05:22;;;;;;;64.30;36.08;;;5.80;99.90;;;;;;5032668;28;20029;-62
2020/12/02 04:07:49;;;;;;;69.78;35.60;;;5.80;99.90;;;;;;5034112;28;20048;-62
2020/12/02 04:10:15;;;;;;;65.10;34.10;;;5.80;99.90;;;;;;5033987;28;20033;-63
2020/12/02 04:12:44;;;;;;;66.75;35.60;;;5.70;99.90;;;;;;5034954;28;20132;-62
2020/12/02 04:15:11;;;;;;;66.45;34.67;;;5.70;99.90;;;;;;5032383;28;20017;-63
2020/12/02 04:17:36;;;;;;;60.00;33.25;;;5.70;99.90;;;;;;5034426;28;20127;-62
2020/12/02 04:20:03;;;;;;;60.60;33.58;;;5.70;99.90;;;;;;5029470;28;20051;-62
2020/12/02 04:22:29;;;;;;;58.05;32.08;;;5.70;99.90;;;;;;5032279;28;20037;-62
2020/12/02 04:24:55;;;;;;;52.78;32.03;;;5.70;99.90;;;;;;5033259;28;20492;-62
2020/12/02 04:27:21;;;;;;;42.72;26.17;;;5.70;99.90;;;;;;5034500;28;20032;-62
2020/12/02 04:29:46;;;;;;;20.00;13.82;;;5.70;99.90;;;;;;5031217;28;20029;-62
2020/12/02 04:32:12;;;;;;;23.58;16.30;;;5.70;99.90;;;;;;5030892;28;20032;-62
2020/12/02 04:34:38;;;;;;;26.02;18.00;;;5.70;99.90;;;;;;5013779;28;20037;-62
2020/12/02 04:37:04;;;;;;;23.17;15.25;;;5.80;99.90;;;;;;5033052;28;20136;-63
2020/12/02 04:39:30;;;;;;;23.63;15.45;;;5.80;99.90;;;;;;5030707;28;20079;-62
2020/12/02 04:41:56;;;;;;;25.05;17.67;;;5.80;99.90;;;;;;5032880;28;20053;-62
2020/12/02 04:44:22;;;;;;;24.58;17.70;;;5.80;99.90;;;;;;5029596;28;20048;-62
2020/12/02 04:46:56;;;;;;;27.80;18.90;;;5.80;99.90;;;;;;5033836;28;20087;-62
2020/12/02 04:49:26;;;;;;;27.02;19.17;;;5.90;99.90;;;;;;5026442;28;20459;-62
2020/12/02 04:51:57;;;;;;;28.98;19.65;;;5.90;99.90;;;;;;5035876;28;20110;-62
2020/12/02 04:54:23;;;;;;;31.48;19.70;;;5.90;99.90;;;;;;5030253;28;20033;-63
2020/12/02 04:56:49;;;;;;;26.00;18.48;;;5.80;99.90;;;;;;5029281;28;20095;-63
2020/12/02 04:59:15;;;;;;;27.52;20.15;;;5.90;99.90;;;;;;5030132;28;20520;-63
2020/12/02 05:01:51;;;;;;;26.08;18.77;;;5.90;99.90;;;;;;5026376;28;20438;-63
2020/12/02 05:04:26;;;;;;;26.52;19.45;;;5.90;99.90;;;;;;5023947;28;20584;-63
2020/12/02 05:07:04;;;;;;;30.52;19.40;;;5.90;99.90;;;;;;5029265;28;20030;-64
2020/12/02 05:09:31;;;;;;;28.23;19.40;;;5.80;99.90;;;;;;5029740;28;20029;-68
2020/12/02 05:12:04;;;;;;;30.73;18.92;;;5.70;99.90;;;;;;5035429;28;20040;-66
2020/12/02 05:14:40;;;;;;;27.10;19.60;;;5.70;99.90;;;;;;5033594;28;20029;-66
2020/12/02 05:17:21;;;;;;;29.95;20.65;;;5.80;99.90;;;;;;5033454;28;20029;-66
2020/12/02 05:20:06;;;;;;;29.20;19.73;;;5.70;99.90;;;;;;5035447;28;20130;-66
2020/12/02 05:22:38;;;;;;;29.95;20.55;;;5.80;99.90;;;;;;5010011;28;20037;-66
2020/12/02 05:25:07;;;;;;;30.88;19.70;;;5.80;99.90;;;;;;5028789;28;20144;-66
2020/12/02 05:27:35;;;;;;;34.50;22.00;;;5.80;99.90;;;;;;5032723;28;20037;-66
2020/12/02 05:30:04;;;;;;;33.15;22.23;;;5.80;99.90;;;;;;5037678;28;20021;-66
2020/12/02 05:32:30;;;;;;;32.53;22.10;;;5.80;99.90;;;;;;5033840;28;20466;-66
2020/12/02 05:34:56;;;;;;;31.52;20.85;;;5.70;99.90;;;;;;5036945;28;20582;-67
2020/12/02 05:37:38;;;;;;;28.77;20.55;;;5.80;99.90;;;;;;5031400;28;20065;-66
2020/12/02 05:40:14;;;;;;;23.35;14.52;;;5.80;99.90;;;;;;5034645;28;20040;-65
2020/12/02 05:42:52;;;;;;;24.58;16.15;;;5.70;99.90;;;;;;5037134;28;20035;-66
2020/12/02 05:45:44;;;;;;;29.17;19.15;;;5.80;99.90;;;;;;5025728;28;20029;-66
2020/12/02 05:48:36;;;;;;;31.10;20.63;;;5.80;99.90;;;;;;5032540;28;20385;-66
2020/12/02 05:51:02;;;;;;;31.52;20.95;;;5.80;99.90;;;;;;5033636;28;20460;-66
2020/12/02 05:53:31;;;;;;;31.02;20.40;;;5.80;99.90;;;;;;5027767;28;20061;-66
2020/12/02 05:55:57;;;;;;;33.53;21.85;;;5.80;99.90;;;;;;5029565;28;20116;-66
2020/12/02 05:58:30;;;;;;;31.17;20.77;;;5.80;99.90;;;;;;5033283;28;20076;-66
2020/12/02 06:00:56;;;;;;;32.17;20.85;;;5.70;99.90;;;;;;5014970;28;20029;-66
2020/12/02 06:03:30;;;;;;;31.75;21.65;;;5.70;99.90;;;;;;5028516;28;20037;-66
2020/12/02 06:06:05;;;;;;;30.95;21.17;;;5.70;99.90;;;;;;5022145;28;20033;-67
2020/12/02 06:08:37;;;;;;;31.58;22.58;;;5.70;99.90;;;;;;5034933;28;20689;-65
2020/12/02 06:11:15;;;;;;;31.50;21.05;;;5.70;99.90;;;;;;5033547;28;20074;-66
2020/12/02 06:13:50;;;;;;;33.42;22.17;;;5.80;99.90;;;;;;5033275;28;20026;-66
2020/12/02 06:16:29;;;;;;;35.50;23.20;;;5.70;99.90;;;;;;5035219;28;20033;-65
2020/12/02 06:19:21;;;;;;;32.40;22.45;;;5.60;99.90;;;;;;5034820;28;20358;-66
2020/12/02 06:21:58;;;;;;;36.85;24.48;;;5.70;99.90;;;;;;5019146;28;20666;-66
2020/12/02 06:24:41;;;;;;;36.28;23.38;;;5.80;99.90;;;;;;5035983;28;20024;-66
2020/12/02 06:27:16;;;;;;;37.95;24.20;;;5.80;99.90;;;;;;5034891;28;20025;-65
2020/12/02 06:30:05;;;;;;;36.17;25.45;;;5.70;99.90;;;;;;5037182;28;20370;-66
2020/12/02 06:32:32;;;;;;;40.28;27.13;;;5.70;99.90;;;;;;5020629;28;20413;-66
2020/12/02 06:35:27;;;;;;;40.45;25.63;;;5.70;99.90;;;;;;5035512;28;20033;-66
2020/12/02 06:38:20;;;;;;;41.08;25.20;;;5.70;99.90;;;;;;5007342;28;20048;-66
2020/12/02 06:40:58;;;;;;;36.35;25.80;;;5.70;99.90;;;;;;5025388;28;20029;-66
2020/12/02 06:43:25;;;;;;;39.03;25.10;;;5.70;99.90;;;;;;5035220;28;20169;-66
2020/12/02 06:45:51;;;;;;;37.25;25.33;;;5.70;99.90;;;;;;5035893;28;20031;-66
2020/12/02 06:48:28;;;;;;;37.45;26.50;;;5.80;99.90;;;;;;5033339;28;20013;-66
2020/12/02 06:50:58;;;;;;;43.85;26.38;;;5.80;99.90;;;;;;5033674;28;20028;-66
2020/12/02 06:53:25;;;;;;;42.53;27.02;;;5.80;99.90;;;;;;5033972;28;20547;-66
2020/12/02 06:56:00;;;;;;;42.90;28.45;;;5.70;99.90;;;;;;5036610;28;20647;-66
2020/12/02 06:58:26;;;;;;;43.05;28.77;;;5.70;99.90;;;;;;5035906;28;20025;-66
2020/12/02 07:01:01;;;;;;;44.72;28.17;;;5.70;99.90;;;;;;5003281;28;20580;-65
2020/12/02 07:03:42;;;;;;;44.38;28.95;;;5.60;99.90;;;;;;5034272;28;20024;-66
2020/12/02 07:06:16;;;;;;;44.72;28.33;;;5.60;99.90;;;;;;5035956;28;20492;-65
2020/12/02 07:08:42;;;;;;;43.08;28.38;;;5.60;99.90;;;;;;5037870;28;20127;-65
2020/12/02 07:11:17;;;;;;;46.05;29.00;;;5.60;99.90;;;;;;5036170;28;20120;-66
2020/12/02 07:13:45;;;;;;;44.15;28.15;;;5.60;99.90;;;;;;5034156;28;20673;-66
2020/12/02 07:16:20;;;;;;;41.95;27.65;;;5.60;99.90;;;;;;5037950;28;20033;-66
2020/12/02 07:18:53;;;;;;;46.88;30.95;;;5.60;99.90;;;;;;5036821;28;20502;-66
2020/12/02 07:21:30;;;;;;;50.83;32.78;;;5.60;99.90;;;;;;5036316;28;20614;-66
2020/12/02 07:23:59;;;;;;;49.35;31.77;;;5.40;99.90;;;;;;5036479;28;20389;-66
2020/12/02 07:26:25;;;;;;;48.50;30.40;;;5.60;99.90;;;;;;5036602;28;20032;-66
2020/12/02 07:28:58;;;;;;;45.63;30.58;;;5.50;99.90;;;;;;5036516;28;20032;-66
2020/12/02 07:31:27;;;;;;;45.65;29.95;;;5.50;99.90;;;;;;5036683;28;20029;-66
2020/12/02 07:34:22;;;;;;;44.28;29.15;;;5.60;99.90;;;;;;5035613;28;20037;-66
2020/12/02 07:36:49;;;;;;;44.85;27.50;;;5.60;99.90;;;;;;5035024;28;20040;-65
2020/12/02 07:39:22;;;;;;;51.72;28.95;;;5.60;99.90;;;;;;5036496;28;20060;-65
2020/12/02 07:42:18;;;;;;;46.78;29.00;;;5.60;99.90;;;;;;5036921;28;20332;-65
2020/12/02 07:45:15;;;;;;;43.30;27.88;;;5.50;99.90;;;;;;5035493;28;20037;-65
2020/12/02 07:48:01;;;;;;;47.67;29.83;;;5.40;99.90;;;;;;5035483;28;20094;-65
2020/12/02 07:50:32;;;;;;;45.05;28.83;;;5.40;99.90;;;;;;5037360;28;20048;-65
2020/12/02 07:53:27;;;;;;;42.85;28.00;;;5.50;99.90;;;;;;5035717;28;20247;-65
2020/12/02 07:55:55;;;;;;;43.10;28.77;;;5.40;99.90;;;;;;5005612;28;20670;-65
2020/12/02 07:58:32;;;;;;;42.50;29.80;;;5.40;99.90;;;;;;5036865;28;20795;-65
2020/12/02 08:01:07;;;;;;;45.40;29.27;;;5.40;99.90;;;;;;5036668;28;20029;-65
2020/12/02 08:03:37;;;;;;;40.88;27.27;;;5.40;99.90;;;;;;5034452;28;20021;-66
2020/12/02 08:06:09;;;;;;;40.33;28.05;;;5.30;99.90;;;;;;5037030;28;20678;-65
2020/12/02 08:08:35;;;;;;;43.50;28.27;;;5.30;99.90;;;;;;5035786;28;20018;-66
2020/12/02 08:11:03;;;;;;;46.35;30.33;;;5.20;99.90;;;;;;5039449;28;20033;-66
2020/12/02 08:13:29;;;;;;;44.38;29.35;;;5.10;99.90;;;;;;5038885;28;20017;-65
2020/12/02 08:15:58;;;;;;;49.65;29.88;;;5.10;99.90;;;;;;5039704;28;20032;-66
2020/12/02 08:18:30;;;;;;;47.25;30.52;;;5.20;99.90;;;;;;5039957;28;20032;-66
2020/12/02 08:21:14;;;;;;;44.55;29.50;;;5.10;99.90;;;;;;5041105;28;20500;-65
2020/12/02 08:23:49;;;;;;;44.05;29.83;;;5.10;99.90;;;;;;5039444;28;20028;-65
2020/12/02 08:26:18;;;;;;;45.20;30.05;;;5.10;99.90;;;;;;5040168;28;20115;-65
2020/12/02 08:28:45;;;;;;;42.15;27.83;;;5.20;99.90;;;;;;5040685;28;20056;-66
2020/12/02 08:31:22;;;;;;;42.63;28.50;;;5.20;99.90;;;;;;5039997;28;20119;-65
2020/12/02 08:34:19;;;;;;;37.67;26.13;;;5.20;99.90;;;;;;5039873;28;20032;-65
2020/12/02 08:36:48;;;;;;;41.03;26.85;;;5.20;99.90;;;;;;5039563;28;20062;-65
2020/12/02 08:39:30;;;;;;;43.85;27.02;;;5.20;99.90;;;;;;5040269;28;20392;-65
2020/12/02 08:41:57;;;;;;;37.45;25.23;;;5.20;99.90;;;;;;5039551;28;20040;-65
2020/12/02 08:44:23;;;;;;;40.40;25.98;;;5.30;99.90;;;;;;5039508;28;20055;-66
2020/12/02 08:46:52;;;;;;;41.65;26.30;;;5.20;99.90;;;;;;5039723;28;20029;-65
2020/12/02 08:49:23;;;;;;;43.70;28.45;;;5.20;99.90;;;;;;5040306;28;20028;-66
2020/12/02 08:51:49;;;;;;;40.45;27.75;;;5.20;99.90;;;;;;5038736;28;20330;-66
2020/12/02 08:54:17;;;;;;;42.90;28.50;;;5.20;99.90;;;;;;5037880;28;20532;-66
2020/12/02 08:56:43;;;;;;;40.45;27.30;;;5.10;99.90;;;;;;5039204;28;20025;-65
2020/12/02 08:59:11;;;;;;;44.13;29.38;;;5.10;99.90;;;;;;5039954;28;20045;-66
2020/12/02 09:01:37;;;;;;;44.22;29.85;;;5.10;99.90;;;;;;5038906;28;20131;-65
2020/12/02 09:04:03;;;;;;;40.17;27.80;;;5.10;99.90;;;;;;5037265;28;20103;-66
2020/12/02 09:06:29;;;;;;;41.30;27.73;;;5.20;99.90;;;;;;5039919;28;20116;-65
2020/12/02 09:08:56;;;;;;;42.47;26.65;;;5.30;99.90;;;;;;5039805;28;20591;-65
2020/12/02 09:11:26;;;;;;;41.20;27.35;;;5.30;99.90;;;;;;5040257;28;20049;-66
2020/12/02 09:13:52;;;;;;;46.17;29.75;;;5.30;99.90;;;;;;5036466;28;20082;-66
2020/12/02 09:16:20;;;;;;;40.53;27.58;;;5.20;99.90;;;;;;5037472;28;20041;-66
2020/12/02 09:18:46;;;;;;;42.03;28.88;;;5.20;99.90;;;;;;5039420;28;20496;-66
2020/12/02 09:21:12;;;;;;;37.80;26.45;;;5.20;99.90;;;;;;5037843;28;20512;-66
2020/12/02 09:23:38;;;;;;;39.90;26.88;;;5.20;99.90;;;;;;5037208;28;20033;-66
2020/12/02 09:26:04;;;;;;;41.30;28.63;;;5.20;99.90;;;;;;5039989;28;20211;-66
2020/12/02 09:28:30;;;;;;;42.17;28.95;;;5.20;99.90;;;;;;5039198;28;20040;-66
2020/12/02 09:30:55;;;;;;;44.67;30.75;;;5.20;99.90;;;;;;5039323;28;20067;-65
2020/12/02 09:33:21;;;;;;;41.65;28.30;;;5.20;99.90;;;;;;5037513;28;20032;-65
2020/12/02 09:35:47;;;;;;;41.25;27.08;;;5.20;99.90;;;;;;5038219;28;20051;-66
2020/12/02 09:38:14;;;;;;;44.63;30.25;;;5.40;99.90;;;;;;5037573;28;20123;-66
2020/12/02 09:40:40;;;;;;;40.50;28.23;;;5.40;99.90;;;;;;5038422;28;20039;-65
2020/12/02 09:44:01;;;;;;;43.25;28.40;;;5.30;99.90;;;;;;5037027;28;20047;-65
2020/12/02 09:46:29;;;;;;;43.63;27.73;;;5.40;99.90;;;;;;4956558;28;20058;-65
2020/12/02 09:48:55;;;;;;;41.20;27.58;;;5.40;99.90;;;;;;4955375;28;20190;-65
2020/12/02 09:51:29;;;;;;;42.25;28.10;;;5.50;99.90;;;;;;5004619;28;20041;-65
2020/12/02 09:53:56;;;;;;;41.63;27.45;;;5.30;99.90;;;;;;5038508;28;20393;-65
2020/12/02 09:56:24;;;;;;;42.90;27.88;;;5.30;99.90;;;;;;5033468;28;20157;-66
2020/12/02 09:58:51;;;;;;;44.92;28.17;;;5.40;99.90;;;;;;5038207;28;20041;-66
2020/12/02 10:01:32;;;;;;;43.10;28.45;;;5.30;99.90;;;;;;5038965;28;20422;-66
2020/12/02 10:04:13;;;;;;;51.53;29.35;;;5.20;99.90;;;;;;5037186;28;20032;-66
2020/12/02 10:06:56;;;;;;;42.75;27.75;;;5.20;99.90;;;;;;5038346;28;20041;-66
2020/12/02 10:09:41;;;;;;;44.33;28.20;;;5.30;99.90;;;;;;5038475;28;20112;-65
2020/12/02 10:12:18;;;;;;;42.00;27.67;;;5.30;99.90;;;;;;5037680;28;20029;-65
2020/12/02 10:15:02;;;;;;;44.95;30.48;;;5.30;99.90;;;;;;5035156;28;20056;-66
2020/12/02 10:17:49;;;;;;;44.83;29.27;;;5.20;99.90;;;;;;5038526;28;20104;-66
2020/12/02 10:20:40;;;;;;;41.90;26.70;;;5.20;99.90;;;;;;5038523;28;20491;-65
2020/12/02 10:23:32;;;;;;;44.17;27.80;;;5.20;99.90;;;;;;5035551;28;20079;-66
2020/12/02 10:26:17;;;;;;;43.58;29.00;;;5.20;99.90;;;;;;5036965;28;20037;-66
2020/12/02 10:28:48;;;;;;;44.83;28.95;;;5.20;99.90;;;;;;5019591;28;20434;-65
2020/12/02 10:31:49;;;;;;;48.05;30.75;;;5.30;99.90;;;;;;5037372;28;20070;-66
2020/12/02 10:34:22;;;;;;;47.50;29.40;;;5.30;99.90;;;;;;5035279;28;20025;-65
2020/12/02 10:36:59;;;;;;;45.28;28.58;;;5.40;99.90;;;;;;5018878;28;20052;-66
2020/12/02 10:39:30;;;;;;;47.65;31.60;;;5.40;99.90;;;;;;5037953;28;20086;-66
2020/12/02 10:42:28;;;;;;;45.35;30.02;;;5.40;99.90;;;;;;5036064;28;20120;-66
2020/12/02 10:45:08;;;;;;;44.28;28.90;;;5.40;99.90;;;;;;5032251;28;20040;-66
2020/12/02 10:47:56;;;;;;;47.97;29.70;;;5.60;99.90;;;;;;5037061;28;20025;-65
2020/12/02 10:50:25;;;;;;;43.28;29.15;;;5.50;99.90;;;;;;5037544;28;20053;-66
2020/12/02 10:52:53;;;;;;;48.83;30.40;;;5.50;99.90;;;;;;5017832;28;20374;-66
2020/12/02 10:55:26;;;;;;;42.78;29.50;;;5.50;99.90;;;;;;5037000;28;20150;-66
2020/12/02 10:58:05;;;;;;;46.33;31.85;;;5.60;99.90;;;;;;5037532;28;20032;-66
2020/12/02 11:00:33;;;;;;;45.53;30.20;;;5.60;99.90;;;;;;5036033;28;20052;-65
2020/12/02 11:03:15;;;;;;;46.70;31.08;;;5.50;99.90;;;;;;5035706;28;20397;-65
2020/12/02 11:05:47;;;;;;;50.13;30.45;;;5.70;99.90;;;;;;5035869;28;20083;-66
2020/12/02 11:08:35;;;;;;;46.53;31.38;;;5.60;99.90;;;;;;5036944;28;20131;-65
2020/12/02 11:11:27;;;;;;;44.92;30.40;;;5.70;99.90;;;;;;5037234;28;20431;-65
2020/12/02 11:14:14;;;;;;;47.63;29.95;;;5.60;99.90;;;;;;5036202;28;20033;-65
2020/12/02 11:16:59;;;;;;;47.38;30.67;;;5.60;99.90;;;;;;5036574;28;20455;-67
2020/12/02 11:19:50;;;;;;;46.83;30.33;;;5.50;99.90;;;;;;5035469;28;20607;-65
2020/12/02 11:22:34;;;;;;;47.30;30.88;;;5.60;99.90;;;;;;5035965;28;20032;-66
2020/12/02 11:25:48;;;;;;;49.30;32.13;;;5.60;99.90;;;;;;5025580;28;20028;-66
2020/12/02 11:28:15;;;;;;;48.03;29.83;;;5.60;99.90;;;;;;4984205;28;20021;-66
2020/12/02 11:30:44;;;;;;;44.72;30.30;;;5.70;99.90;;;;;;4984687;28;20069;-66
2020/12/02 11:33:31;;;;;;;45.17;28.75;;;5.60;99.90;;;;;;5009196;28;20037;-65
2020/12/02 11:36:31;;;;;;;43.40;29.67;;;5.60;99.90;;;;;;5036401;28;20397;-65
2020/12/02 11:39:17;;;;;;;;;;;5.60;99.90;;;;;;5037519;28;20073;-66
2020/12/02 11:42:22;;;;;;;44.92;27.77;;;5.60;99.90;;;;;;5026857;28;19909;-66
2020/12/02 11:45:02;;;;;;;47.88;28.00;;;5.70;99.90;;;;;;4986606;28;20244;-65
2020/12/02 11:47:34;;;;;;;;;;;5.60;99.90;;;;;;5037416;28;20103;-66
2020/12/02 11:50:31;;;;;;;44.67;28.33;;;5.50;99.90;;;;;;5036408;28;20459;-66
2020/12/02 11:53:08;;;;;;;46.35;28.73;;;5.50;99.90;;;;;;5034816;28;20048;-65
2020/12/02 11:55:35;;;;;;;47.00;27.98;;;5.50;99.90;;;;;;5035956;28;20471;-65
2020/12/02 11:58:04;;;;;;;48.15;29.65;;;5.60;99.90;;;;;;5031994;28;20044;-65
2020/12/02 12:00:31;;;;;;;51.25;29.65;;;5.60;99.90;;;;;;5035526;28;20040;-66
2020/12/02 12:03:04;;;;;;;44.63;29.13;;;5.60;99.90;;;;;;5035406;28;20025;-65
2020/12/02 12:05:39;;;;;;;46.20;29.67;;;5.60;99.90;;;;;;5036723;28;20050;-66
2020/12/02 12:08:15;;;;;;;47.28;29.30;;;5.60;99.90;;;;;;5036634;28;20033;-65
2020/12/02 12:10:53;;;;;;;48.50;29.60;;;5.60;99.90;;;;;;5035945;28;20025;-66
2020/12/02 12:13:39;;;;;;;46.28;29.50;;;5.60;99.90;;;;;;5033473;28;20068;-66
2020/12/02 12:16:20;;;;;;;46.22;27.25;;;5.60;99.90;;;;;;5036887;28;20017;-65
2020/12/02 12:19:27;;;;;;;44.90;27.85;;;5.60;99.90;;;;;;5035842;28;20032;-65
2020/12/02 12:22:12;;;;;;;44.85;28.13;;;5.60;99.90;;;;;;5035292;28;20025;-65
2020/12/02 12:24:38;;;;;;;44.35;27.95;;;5.60;99.90;;;;;;5035687;28;20496;-65
2020/12/02 12:27:04;;;;;;;41.17;26.85;;;5.60;99.90;;;;;;5036637;28;20021;-65
2020/12/02 12:29:30;;;;;;;44.55;27.63;;;5.60;99.90;;;;;;5035339;28;20035;-66
2020/12/02 12:32:24;;;;;;;44.35;27.25;;;5.50;99.90;;;;;;5036274;28;20033;-65
2020/12/02 12:34:59;;;;;;;52.78;28.05;;;5.50;99.90;;;;;;5035555;28;20135;-65
2020/12/02 12:37:37;;;;;;;42.72;26.75;;;5.50;99.90;;;;;;5035776;28;20049;-65
2020/12/02 12:40:12;;;;;;;44.28;26.17;;;5.50;99.90;;;;;;5036807;28;20420;-65
2020/12/02 12:42:38;;;;;;;44.00;27.00;;;5.50;99.90;;;;;;5036269;28;20411;-65
2020/12/02 12:45:13;;;;;;;50.78;27.30;;;5.50;99.90;;;;;;5032994;28;20029;-65
2020/12/02 12:47:42;;;;;;;48.42;28.77;;;5.50;99.90;;;;;;5035987;28;20067;-66
2020/12/02 12:50:10;;;;;;;47.72;27.67;;;5.40;99.90;;;;;;5035832;28;20134;-65
2020/12/02 12:52:37;;;;;;;46.95;28.15;;;5.40;99.90;;;;;;5035073;28;20106;-66
2020/12/02 12:55:05;;;;;;;42.97;27.58;;;5.30;99.90;;;;;;5035545;28;20032;-66
2020/12/02 12:57:31;;;;;;;50.50;27.65;;;5.40;99.90;;;;;;5027505;28;20361;-65
2020/12/02 13:00:00;;;;;;;43.97;27.83;;;5.50;99.90;;;;;;5039381;28;20563;-65
2020/12/02 13:02:29;;;;;;;47.60;28.67;;;5.40;99.90;;;;;;5038330;28;20040;-66
2020/12/02 13:04:55;;;;;;;42.88;27.23;;;5.50;99.90;;;;;;5037603;28;20269;-65
2020/12/02 13:07:27;;;;;;;45.10;28.77;;;5.50;99.90;;;;;;5039635;28;20032;-65
2020/12/02 13:09:58;;;;;;;48.58;29.50;;;5.40;99.90;;;;;;5039466;28;20029;-65